createdAt,value
2023-03-22T00:01:55.489Z,8.65
2023-03-22T00:04:57.038Z,8.64
2023-03-22T00:07:58.908Z,8.61
2023-03-22T00:11:00.614Z,8.59
2023-03-22T00:14:02.194Z,8.58
2023-03-22T00:17:03.812Z,8.54
2023-03-22T00:20:08.917Z,8.53
2023-03-22T00:23:10.658Z,8.51
2023-03-22T00:26:13.657Z,8.49
2023-03-22T00:29:16.225Z,8.45
2023-03-22T00:32:17.857Z,8.40
2023-03-22T00:35:19.545Z,8.35
2023-03-22T00:38:27.282Z,8.30
2023-03-22T00:41:34.241Z,8.25
2023-03-22T00:44:36.084Z,8.20
2023-03-22T00:47:37.995Z,8.18
2023-03-22T00:50:41.155Z,8.17
2023-03-22T00:53:43.841Z,8.14
2023-03-22T00:56:45.534Z,8.11
2023-03-22T00:59:47.471Z,8.10
2023-03-22T01:02:49.192Z,8.08
2023-03-22T01:05:55.597Z,8.07
2023-03-22T01:08:57.337Z,8.05
2023-03-22T01:11:59.848Z,8.04
2023-03-22T01:15:01.598Z,8.02
2023-03-22T01:18:03.668Z,8.02
2023-03-22T01:21:05.938Z,8.01
2023-03-22T01:24:07.819Z,7.99
2023-03-22T01:27:09.410Z,7.99
2023-03-22T01:30:11.821Z,7.97
2023-03-22T01:33:13.378Z,7.96
2023-03-22T01:36:14.921Z,7.96
2023-03-22T01:39:16.664Z,7.95
2023-03-22T01:42:21.015Z,7.95
2023-03-22T01:45:43.488Z,7.93
2023-03-22T01:48:46.442Z,7.92
2023-03-22T01:51:50.616Z,7.90
2023-03-22T01:54:54.002Z,7.90
2023-03-22T01:57:55.805Z,7.89
2023-03-22T02:00:58.405Z,7.89
2023-03-22T02:04:09.495Z,7.89
2023-03-22T02:07:15.875Z,7.90
2023-03-22T02:10:24.476Z,7.89
2023-03-22T02:13:48.633Z,7.90
2023-03-22T02:17:12.068Z,7.90
2023-03-22T02:20:41.865Z,7.89
2023-03-22T02:24:23.552Z,7.88
2023-03-22T02:27:34.418Z,7.86
2023-03-22T02:30:44.833Z,7.85
2023-03-22T02:34:17.335Z,7.85
2023-03-22T02:37:36.804Z,7.83
2023-03-22T02:40:54.209Z,7.83
2023-03-22T02:44:52.608Z,7.82
2023-03-22T02:48:12.709Z,7.81
2023-03-22T02:51:26.198Z,7.80
2023-03-22T02:54:39.794Z,7.82
2023-03-22T02:57:52.202Z,7.83
2023-03-22T03:00:59.563Z,7.82
2023-03-22T03:04:05.765Z,7.83
2023-03-22T03:07:09.932Z,7.84
2023-03-22T03:10:15.122Z,7.85
2023-03-22T03:13:18.753Z,7.84
2023-03-22T03:16:22.836Z,7.85
2023-03-22T03:19:35.826Z,7.84
2023-03-22T03:23:16.565Z,7.84
2023-03-22T03:26:24.003Z,7.84
2023-03-22T03:29:42.906Z,7.84
2023-03-22T03:33:00.875Z,7.84
2023-03-22T03:36:07.509Z,7.84
2023-03-22T03:39:12.587Z,7.85
2023-03-22T03:42:16.565Z,7.86
2023-03-22T03:45:19.755Z,7.86
2023-03-22T03:48:33.270Z,7.87
2023-03-22T03:51:46.878Z,7.89
2023-03-22T03:54:48.403Z,7.87
2023-03-22T03:57:50.007Z,7.88
2023-03-22T04:00:51.798Z,7.88
2023-03-22T04:03:55.494Z,7.88
2023-03-22T04:06:59.102Z,7.88
2023-03-22T04:10:00.781Z,7.87
2023-03-22T04:13:02.473Z,7.88
2023-03-22T04:16:04.131Z,7.86
2023-03-22T04:19:05.863Z,7.88
2023-03-22T04:22:07.526Z,7.89
2023-03-22T04:25:11.987Z,7.91
2023-03-22T04:28:13.807Z,7.90
2023-03-22T04:31:15.446Z,7.91
2023-03-22T04:34:17.066Z,7.91
2023-03-22T04:37:19.987Z,7.92
2023-03-22T04:40:21.670Z,7.92
2023-03-22T04:43:23.431Z,7.90
2023-03-22T04:46:25.292Z,7.91
2023-03-22T04:49:27.204Z,7.91
2023-03-22T04:52:28.801Z,7.91
2023-03-22T04:55:30.321Z,7.89
2023-03-22T04:58:31.907Z,7.89
2023-03-22T05:01:35.307Z,7.90
2023-03-22T05:04:36.942Z,7.89
2023-03-22T05:07:39.295Z,7.87
2023-03-22T05:10:41.469Z,7.87
2023-03-22T05:13:43.493Z,7.88
2023-03-22T05:16:45.288Z,7.89
2023-03-22T05:19:47.774Z,7.88
2023-03-22T05:22:50.564Z,7.89
2023-03-22T05:25:53.460Z,7.89
2023-03-22T05:28:55.823Z,7.89
2023-03-22T05:31:57.330Z,7.89
2023-03-22T05:35:03.619Z,7.90
2023-03-22T05:38:06.328Z,7.90
2023-03-22T05:41:08.169Z,7.92
2023-03-22T05:44:09.733Z,7.92
2023-03-22T05:47:11.455Z,7.93
2023-03-22T05:50:19.607Z,7.94
2023-03-22T05:53:21.217Z,7.95
2023-03-22T05:56:24.399Z,7.97
2023-03-22T05:59:26.275Z,7.99
2023-03-22T06:02:28.457Z,8.01
2023-03-22T06:05:31.857Z,8.04
2023-03-22T06:08:33.986Z,8.04
2023-03-22T06:11:35.564Z,8.05
2023-03-22T06:14:37.597Z,8.08
2023-03-22T06:17:39.359Z,8.10
2023-03-22T06:20:41.751Z,8.10
2023-03-22T06:23:44.069Z,8.20
2023-03-22T06:26:45.664Z,8.37
2023-03-22T06:29:50.862Z,8.39
2023-03-22T06:32:52.566Z,8.38
2023-03-22T06:35:54.150Z,8.38
2023-03-22T06:38:57.149Z,8.37
2023-03-22T06:41:58.724Z,8.37
2023-03-22T06:45:01.114Z,8.39
2023-03-22T06:48:02.980Z,8.38
2023-03-22T06:51:04.952Z,8.38
2023-03-22T06:54:06.500Z,8.39
2023-03-22T06:57:08.128Z,8.41
2023-03-22T07:00:10.775Z,8.42
2023-03-22T07:03:12.397Z,8.44
2023-03-22T07:06:14.161Z,8.46
2023-03-22T07:09:15.857Z,8.47
2023-03-22T07:12:18.711Z,8.49
2023-03-22T07:15:24.495Z,8.50
2023-03-22T07:18:26.875Z,8.52
2023-03-22T07:21:28.731Z,8.53
2023-03-22T07:24:30.384Z,8.55
2023-03-22T07:27:31.923Z,8.55
2023-03-22T07:30:37.508Z,8.58
2023-03-22T07:33:39.769Z,8.62
2023-03-22T07:36:41.369Z,8.66
2023-03-22T07:39:43.007Z,8.69
2023-03-22T07:42:44.659Z,8.73
2023-03-22T07:45:46.200Z,8.85
2023-03-22T07:48:47.782Z,8.92
2023-03-22T07:51:49.316Z,8.97
2023-03-22T07:54:50.866Z,9.03
2023-03-22T07:57:53.743Z,9.10
2023-03-22T08:00:55.462Z,9.18
2023-03-22T08:03:57.046Z,9.24
2023-03-22T08:06:58.738Z,9.30
2023-03-22T08:10:00.511Z,9.37
2023-03-22T08:13:02.050Z,9.43
2023-03-22T08:16:03.788Z,9.48
2023-03-22T08:19:05.616Z,9.54
2023-03-22T08:22:08.121Z,9.58
2023-03-22T08:25:10.650Z,9.63
2023-03-22T08:28:13.532Z,9.70
2023-03-22T08:31:17.174Z,9.78
2023-03-22T08:34:18.901Z,9.83
2023-03-22T08:37:20.475Z,9.87
2023-03-22T08:40:26.019Z,9.92
2023-03-22T08:43:27.668Z,9.96
2023-03-22T08:46:29.251Z,9.99
2023-03-22T08:49:31.558Z,10.03
2023-03-22T08:52:33.315Z,10.06
2023-03-22T08:55:37.691Z,10.09
2023-03-22T08:58:39.515Z,10.13
2023-03-22T09:01:41.164Z,10.17
2023-03-22T09:04:44.200Z,10.20
2023-03-22T09:07:45.798Z,10.20
2023-03-22T09:10:51.450Z,10.21
2023-03-22T09:13:53.216Z,10.22
2023-03-22T09:16:54.739Z,10.26
2023-03-22T09:20:11.181Z,10.29
2023-03-22T09:23:15.535Z,10.39
2023-03-22T09:26:17.092Z,10.51
2023-03-22T09:29:19.573Z,10.58
2023-03-22T09:32:21.178Z,10.60
2023-03-22T09:35:23.261Z,10.62
2023-03-22T09:38:25.482Z,10.60
2023-03-22T09:41:38.616Z,10.58
2023-03-22T09:44:43.224Z,10.50
2023-03-22T09:47:48.997Z,10.46
2023-03-22T09:50:54.883Z,10.44
2023-03-22T09:53:56.449Z,10.44
2023-03-22T09:57:16.312Z,10.45
2023-03-22T10:00:22.031Z,10.53
2023-03-22T10:03:51.865Z,10.60
2023-03-22T10:07:34.089Z,10.65
2023-03-22T10:10:37.285Z,10.65
2023-03-22T10:13:49.010Z,10.70
2023-03-22T10:16:56.437Z,10.74
2023-03-22T10:20:06.276Z,10.79
2023-03-22T10:23:14.437Z,10.82
2023-03-22T10:26:26.551Z,10.88
2023-03-22T10:29:33.981Z,10.94
2023-03-22T10:32:57.188Z,10.98
2023-03-22T10:36:02.108Z,10.98
2023-03-22T10:39:36.372Z,10.98
2023-03-22T10:42:39.461Z,10.98
2023-03-22T10:45:42.721Z,10.99
2023-03-22T10:48:46.577Z,11.02
2023-03-22T10:51:50.537Z,10.99
2023-03-22T10:54:52.618Z,10.98
2023-03-22T10:58:13.884Z,11.01
2023-03-22T11:01:26.007Z,11.02
2023-03-22T11:04:31.360Z,11.04
2023-03-22T11:07:39.725Z,11.06
2023-03-22T11:10:41.382Z,11.09
2023-03-22T11:13:43.250Z,11.19
2023-03-22T11:17:17.173Z,11.32
2023-03-22T11:20:20.629Z,11.46
2023-03-22T11:23:24.203Z,11.61
2023-03-22T11:26:29.807Z,11.70
2023-03-22T11:29:42.262Z,11.77
2023-03-22T11:32:43.877Z,11.77
2023-03-22T11:35:55.312Z,11.87
2023-03-22T11:39:02.354Z,11.92
2023-03-22T11:42:06.573Z,11.89
2023-03-22T11:45:14.497Z,11.86
2023-03-22T11:48:21.263Z,11.78
2023-03-22T11:51:30.926Z,11.66
2023-03-22T11:54:36.357Z,11.54
2023-03-22T11:57:38.086Z,11.45
2023-03-22T12:00:40.816Z,11.37
2023-03-22T12:03:44.151Z,11.29
2023-03-22T12:06:46.178Z,11.21
2023-03-22T12:10:03.292Z,11.12
2023-03-22T12:13:15.849Z,11.01
2023-03-22T12:16:24.867Z,10.91
2023-03-22T12:19:41.987Z,10.83
2023-03-22T12:22:51.310Z,10.77
2023-03-22T12:26:00.443Z,10.73
2023-03-22T12:29:06.088Z,10.68
2023-03-22T12:32:19.528Z,10.63
2023-03-22T12:35:36.976Z,10.62
2023-03-22T12:38:48.778Z,10.58
2023-03-22T12:41:52.983Z,10.51
2023-03-22T12:45:05.477Z,10.48
2023-03-22T12:48:33.671Z,10.45
2023-03-22T12:51:36.655Z,10.47
2023-03-22T12:54:38.610Z,10.47
2023-03-22T12:57:40.399Z,10.47
2023-03-22T13:00:48.547Z,10.50
2023-03-22T13:03:53.728Z,10.51
2023-03-22T13:07:11.734Z,10.54
2023-03-22T13:10:36.537Z,10.54
2023-03-22T13:13:46.756Z,10.54
2023-03-22T13:16:53.098Z,10.55
2023-03-22T13:20:23.704Z,10.59
2023-03-22T13:23:27.150Z,10.56
2023-03-22T13:26:58.416Z,10.57
2023-03-22T13:30:00.250Z,10.55
2023-03-22T13:33:03.515Z,10.52
2023-03-22T13:36:08.546Z,10.51
2023-03-22T13:39:12.590Z,10.50
2023-03-22T13:42:23.188Z,10.48
2023-03-22T13:45:34.001Z,10.46
2023-03-22T13:48:48.074Z,10.43
2023-03-22T13:51:51.362Z,10.40
2023-03-22T13:54:57.222Z,10.36
2023-03-22T13:57:59.901Z,10.29
2023-03-22T14:01:04.651Z,10.25
2023-03-22T14:04:16.404Z,10.21
2023-03-22T14:07:32.954Z,10.16
2023-03-22T14:10:43.360Z,10.12
2023-03-22T14:13:53.598Z,10.08
2023-03-22T14:17:05.010Z,10.03
2023-03-22T14:20:10.933Z,10.02
